X  Chiuso Dati meteorologici dell'aviazione (METAR)     YMML Melbourne International Airport
Temperatura
17°C Temperatura
13°C Punto di rugiada
77% Umidità



Vento
9 MPH
14 KM/O
4 M/S
8 KTS



190°
S
Condizioni attuali

Parzialmente nuvoloso Parzialmente nuvoloso
Pressione 1010.92 (hPa) - 29.85 (inHg)
Visibilità 6.2 (miglio) - 10 (km)
Aeroporto
Codice-Aeroporto YMML

Posizione: Melbourne International Airport
Distanza: 18 (mi)

Metar:
YMML 301430Z 19008KT 9999 FEW018 SCT022 BKN030 17/13 Q1011 RF00.0/000.0

Ore: 31-01-2023 01:30 AEDT